Time;durP1;ratioP1;P1;durP2;ratioP2;P2;SDS_P1;SDS_P2;PMS_P1;PMS_P2;Temp;Humidity;BMP_temperature;BMP_pressure;BME280_temperature;BME280_humidity;BME280_pressure;Samples;Min_cycle;Max_cycle;Signal;HPM_P1;HPM_P2
2021/03/05 00:01:17;;;;;;;10.13;6.40;;;;;;;7.96;93.07;153404.22;5131492;28;20436;-94
2021/03/05 00:03:53;;;;;;;9.40;8.10;;;;;;;7.92;93.50;153395.19;5099041;28;20432;-94
2021/03/05 00:06:28;;;;;;;8.57;7.07;;;;;;;7.92;93.45;153395.19;5133643;27;20424;-94
2021/03/05 00:09:05;;;;;;;10.80;8.30;;;;;;;7.94;93.38;153400.34;5099085;28;20906;-94
2021/03/05 00:11:40;;;;;;;8.93;7.50;;;;;;;7.92;93.52;153393.88;5130042;28;20479;-94
2021/03/05 00:14:16;;;;;;;11.63;9.17;;;;;;;7.81;94.24;153365.50;5130585;28;20469;-94
2021/03/05 00:16:51;;;;;;;13.40;10.20;;;;;;;7.58;92.14;153306.03;5133519;27;20512;-94
2021/03/05 00:19:27;;;;;;;12.57;10.57;;;;;;;7.55;92.47;153299.59;5098966;28;20436;-94
2021/03/05 00:22:03;;;;;;;12.60;10.20;;;;;;;7.58;92.58;153306.03;5098996;28;20420;-94
2021/03/05 00:24:39;;;;;;;13.23;10.50;;;;;;;7.43;91.07;153268.59;5099339;28;20440;-93
2021/03/05 00:27:15;;;;;;;12.17;9.50;;;;;;;7.25;89.51;153223.38;5134240;27;20424;-93
2021/03/05 00:29:50;;;;;;;13.63;10.00;;;;;;;7.05;90.42;153171.75;5098750;28;20451;-94
2021/03/05 00:32:26;;;;;;;15.10;10.70;;;;;;;7.00;89.79;153158.84;5099128;28;20456;-94
2021/03/05 00:35:03;;;;;;;14.97;11.13;;;;;;;6.80;89.33;153105.91;5098656;28;20454;-94
2021/03/05 00:37:39;;;;;;;16.63;12.60;;;;;;;6.75;90.44;153094.31;5098758;28;20459;-93
2021/03/05 00:40:17;;;;;;;17.37;12.17;;;;;;;6.65;89.28;153068.47;5099794;28;20439;-94
2021/03/05 00:42:53;;;;;;;18.50;12.67;;;;;;;6.60;89.27;153055.56;5097874;28;20432;-94
2021/03/05 00:45:28;;;;;;;18.27;13.63;;;;;;;6.63;89.49;153064.63;5098535;28;20431;-93
2021/03/05 00:48:05;;;;;;;18.37;13.63;;;;;;;6.60;89.46;153055.56;5130685;28;20424;-94
2021/03/05 00:50:40;;;;;;;20.43;13.90;;;;;;;6.68;89.92;153076.22;5098522;28;20823;-94
2021/03/05 00:53:18;;;;;;;19.63;13.63;;;;;;;6.59;89.94;153054.28;5098195;28;20440;-94
2021/03/05 00:55:55;;;;;;;19.93;14.27;;;;;;;6.61;88.98;153059.47;5098517;28;20439;-94
2021/03/05 00:58:32;;;;;;;16.83;13.03;;;;;;;6.44;89.82;153014.28;5098267;28;20459;-94
2021/03/05 01:01:12;;;;;;;21.63;15.27;;;;;;;6.38;90.23;153000.06;5102560;28;20432;-94
2021/03/05 01:03:48;;;;;;;19.80;15.03;;;;;;;6.33;90.75;152985.91;5101928;28;20427;-94
2021/03/05 01:06:31;;;;;;;24.13;15.90;;;;;;;6.27;92.50;152970.41;5134119;27;20435;-94
2021/03/05 01:09:12;;;;;;;21.33;16.30;;;;;;;6.22;92.62;152958.81;5102381;28;20447;-94
2021/03/05 01:11:49;;;;;;;23.33;15.33;;;;;;;6.03;92.50;152911.09;5101911;28;20474;-94
2021/03/05 01:14:24;;;;;;;20.90;15.20;;;;;;;6.00;93.62;152902.03;5110374;28;20415;-94
2021/03/05 01:16:59;;;;;;;21.63;16.60;;;;;;;5.88;93.57;152872.34;5123151;28;20427;-94
2021/03/05 01:19:34;;;;;;;21.40;15.93;;;;;;;5.85;93.85;152863.38;5124236;28;20419;-94
2021/03/05 01:22:10;;;;;;;23.03;15.03;;;;;;;5.77;92.86;152842.69;5125889;28;20438;-93
2021/03/05 01:24:46;;;;;;;22.40;15.20;;;;;;;5.77;94.41;152843.94;5152225;27;20411;-94
2021/03/05 01:27:22;;;;;;;22.07;15.80;;;;;;;5.81;93.34;152854.28;5111559;28;20427;-95
2021/03/05 01:29:58;;;;;;;23.27;16.73;;;;;;;5.71;92.57;152828.47;5103961;28;20511;-95
2021/03/05 01:32:34;;;;;;;26.20;17.13;;;;;;;5.57;92.86;152792.38;5135352;27;20462;-95
2021/03/05 01:35:13;;;;;;;23.93;17.10;;;;;;;5.54;93.45;152784.63;5106813;28;20431;-95
2021/03/05 01:37:49;;;;;;;24.30;15.90;;;;;;;5.43;93.61;152756.25;5102743;28;20453;-96
2021/03/05 01:40:28;;;;;;;29.10;17.57;;;;;;;5.46;93.77;152764.00;5136259;27;20450;-96
2021/03/05 01:43:06;;;;;;;24.87;17.07;;;;;;;5.29;93.67;152720.19;5137177;27;20507;-95
2021/03/05 01:45:41;;;;;;;25.30;16.87;;;;;;;5.17;94.15;152690.50;5101936;28;20463;-95
2021/03/05 01:48:19;;;;;;;27.23;18.00;;;;;;;5.21;94.06;152700.84;5102095;28;20418;-96
2021/03/05 01:51:02;;;;;;;25.53;17.03;;;;;;;5.01;94.67;152649.25;5101264;28;20567;-95
2021/03/05 01:53:38;;;;;;;25.60;17.87;;;;;;;4.92;94.35;152627.34;5101352;28;20426;-96
2021/03/05 01:56:31;;;;;;;23.90;16.20;;;;;;;4.97;94.14;152637.69;5101133;28;20430;-96
2021/03/05 01:59:09;;;;;;;24.87;15.53;;;;;;;4.99;95.08;152642.81;5101359;28;20449;-96
2021/03/05 02:01:44;;;;;;;23.13;14.73;;;;;;;4.95;95.25;152632.53;5101214;28;20528;-96
2021/03/05 02:04:20;;;;;;;21.37;13.13;;;;;;;4.90;94.99;152622.19;5135275;27;20453;-96
2021/03/05 02:06:56;;;;;;;25.03;16.00;;;;;;;4.72;95.92;152575.81;5100895;28;20424;-96
2021/03/05 02:09:31;;;;;;;23.90;16.17;;;;;;;4.69;96.74;152568.06;5101103;28;20433;-95
2021/03/05 02:12:08;;;;;;;23.40;15.53;;;;;;;4.72;97.38;152575.81;5099768;28;20471;-96
2021/03/05 02:14:45;;;;;;;27.87;17.73;;;;;;;4.47;98.08;152510.13;5100992;28;20809;-96
2021/03/05 02:17:25;;;;;;;28.73;17.97;;;;;;;4.47;97.74;152511.41;5100683;28;20431;-96
2021/03/05 02:20:09;;;;;;;29.10;18.80;;;;;;;4.55;98.47;152530.72;5101062;28;20497;-96
2021/03/05 02:23:07;;;;;;;27.83;18.20;;;;;;;4.56;98.30;152533.28;5100541;28;20484;-96
2021/03/05 02:25:57;;;;;;;28.70;17.33;;;;;;;4.47;98.30;152511.41;5100720;28;20780;-96
2021/03/05 02:29:15;;;;;;;27.30;17.03;;;;;;;4.49;98.75;152516.56;5100903;28;20433;-96
2021/03/05 02:31:54;;;;;;;24.40;16.87;;;;;;;4.52;97.39;152524.28;5100595;28;20464;-95
2021/03/05 02:34:31;;;;;;;23.80;16.20;;;;;;;4.48;97.68;152513.97;5100557;28;20436;-96
2021/03/05 02:37:08;;;;;;;28.63;17.83;;;;;;;4.44;98.34;152502.38;5100151;28;20907;-96
2021/03/05 02:39:47;;;;;;;25.97;18.10;;;;;;;4.45;97.51;152504.97;5101588;28;20437;-96
2021/03/05 02:42:26;;;;;;;28.73;16.47;;;;;;;4.37;97.53;152484.38;5121367;28;20415;-96
2021/03/05 02:45:05;;;;;;;26.27;16.40;;;;;;;4.43;97.85;152501.09;5122624;28;20436;-96
2021/03/05 02:47:43;;;;;;;24.50;14.80;;;;;;;4.37;97.79;152485.63;5151779;27;20433;-96
2021/03/05 02:50:20;;;;;;;26.17;16.40;;;;;;;4.34;98.23;152477.94;5100232;28;20432;-96
2021/03/05 02:52:58;;;;;;;26.47;16.20;;;;;;;4.26;98.31;152458.56;5132239;27;20899;-95
2021/03/05 02:55:34;;;;;;;30.27;18.50;;;;;;;4.28;98.36;152462.47;5100594;28;20764;-95
2021/03/05 02:58:13;;;;;;;26.10;16.50;;;;;;;4.23;98.65;152449.59;5099542;28;20440;-96
2021/03/05 03:00:49;;;;;;;29.03;15.83;;;;;;;4.19;99.51;152439.25;5099893;28;20445;-96
2021/03/05 03:03:27;;;;;;;25.73;15.53;;;;;;;4.20;99.49;152441.84;5099721;28;20435;-94
2021/03/05 03:06:03;;;;;;;23.30;15.20;;;;;;;4.13;98.81;152423.84;5099113;28;20443;-96
2021/03/05 03:08:39;;;;;;;22.10;15.60;;;;;;;4.17;99.16;152435.41;5099278;28;20416;-95
2021/03/05 03:11:14;;;;;;;26.00;15.93;;;;;;;4.26;99.27;152457.31;5132154;27;20474;-95
2021/03/05 03:13:50;;;;;;;26.33;17.50;;;;;;;4.21;98.46;152444.41;5131052;27;20754;-96
2021/03/05 03:16:27;;;;;;;26.37;15.63;;;;;;;4.20;98.49;152441.84;5099371;28;20460;-96
2021/03/05 03:19:06;;;;;;;24.50;16.73;;;;;;;4.04;99.17;152400.63;5099637;28;20819;-95
2021/03/05 03:21:42;;;;;;;24.30;16.53;;;;;;;4.07;100.00;152409.66;5099619;28;20427;-96
2021/03/05 03:24:17;;;;;;;23.20;14.50;;;;;;;4.12;98.80;152422.53;5098437;28;20436;-96
2021/03/05 03:26:53;;;;;;;28.33;15.60;;;;;;;4.05;99.05;152404.47;5131184;27;20802;-95
2021/03/05 03:29:29;;;;;;;23.23;14.50;;;;;;;4.11;98.50;152419.94;5131057;27;20438;-95
2021/03/05 03:32:05;;;;;;;21.70;14.37;;;;;;;4.14;99.00;152426.38;5099265;28;20464;-95
2021/03/05 03:34:42;;;;;;;22.30;15.23;;;;;;;4.17;98.76;152434.13;5130811;27;20450;-96
2021/03/05 03:37:18;;;;;;;26.20;14.80;;;;;;;4.19;98.56;152439.25;5099427;28;20423;-95
2021/03/05 03:39:54;;;;;;;24.97;14.77;;;;;;;4.11;98.50;152418.66;5098685;28;20925;-96
2021/03/05 03:42:30;;;;;;;21.30;14.57;;;;;;;4.06;98.30;152405.78;5099490;28;20879;-96
2021/03/05 03:45:07;;;;;;;22.30;14.97;;;;;;;4.08;99.36;152410.91;5099276;28;20445;-96
2021/03/05 03:47:43;;;;;;;25.70;14.50;;;;;;;4.05;98.71;152403.22;5098934;28;20424;-95
2021/03/05 03:50:25;;;;;;;20.50;14.03;;;;;;;4.11;99.38;152418.66;5098519;28;20432;-96
2021/03/05 03:53:04;;;;;;;24.03;13.93;;;;;;;4.12;98.61;152422.53;5130736;27;20413;-96
2021/03/05 03:55:40;;;;;;;19.30;12.87;;;;;;;4.09;98.95;152414.81;5098943;28;20424;-95
2021/03/05 03:58:15;;;;;;;22.50;14.67;;;;;;;4.10;98.80;152416.09;5133379;27;20432;-96
2021/03/05 04:00:53;;;;;;;22.37;14.77;;;;;;;3.97;100.00;152383.88;5098636;28;20439;-95
2021/03/05 04:03:31;;;;;;;20.60;13.90;;;;;;;3.90;100.00;152364.56;5098698;28;20933;-96
2021/03/05 04:06:07;;;;;;;22.10;15.20;;;;;;;3.88;100.00;152359.44;5098552;28;20937;-96
2021/03/05 04:08:43;;;;;;;20.27;14.93;;;;;;;3.83;100.00;152346.56;5098917;28;20880;-96
2021/03/05 04:11:20;;;;;;;23.40;13.77;;;;;;;3.80;100.00;152340.13;5099870;28;20834;-96
2021/03/05 04:13:56;;;;;;;23.90;14.70;;;;;;;3.82;100.00;152345.25;5098528;28;20429;-96
2021/03/05 04:16:31;;;;;;;22.03;13.47;;;;;;;3.84;100.00;152350.41;5098619;28;20408;-96
2021/03/05 04:19:07;;;;;;;19.13;13.87;;;;;;;3.84;100.00;152349.16;5098247;28;20439;-96
2021/03/05 04:21:44;;;;;;;20.57;12.83;;;;;;;3.84;100.00;152350.41;5099001;28;20463;-96
2021/03/05 04:24:20;;;;;;;21.30;12.83;;;;;;;3.73;100.00;152320.81;5130085;28;20430;-96
2021/03/05 04:26:56;;;;;;;17.90;12.13;;;;;;;3.68;100.00;152310.50;5130737;28;20439;-96
2021/03/05 04:29:31;;;;;;;16.80;11.30;;;;;;;3.70;100.00;152314.38;5098870;28;20457;-96
2021/03/05 04:32:07;;;;;;;17.63;11.40;;;;;;;3.75;100.00;152325.94;5130728;28;20468;-96
2021/03/05 04:34:43;;;;;;;16.23;11.03;;;;;;;3.73;100.00;152322.13;5101795;28;20491;-96
2021/03/05 04:37:19;;;;;;;16.83;10.80;;;;;;;3.75;100.00;152325.94;5103376;28;20428;-96
2021/03/05 04:39:57;;;;;;;17.00;12.30;;;;;;;3.73;100.00;152320.81;5102434;28;20432;-96
2021/03/05 04:42:32;;;;;;;15.00;10.27;;;;;;;3.68;100.00;152309.19;5102643;28;20517;-96
2021/03/05 04:45:09;;;;;;;17.67;11.27;;;;;;;3.67;100.00;152306.66;5102738;28;20921;-96
2021/03/05 04:47:44;;;;;;;16.97;11.33;;;;;;;3.64;100.00;152300.22;5102523;28;20424;-96
2021/03/05 04:50:19;;;;;;;16.60;11.57;;;;;;;3.57;100.00;152282.16;5136809;27;20443;-96
2021/03/05 04:52:56;;;;;;;15.47;11.43;;;;;;;3.58;100.00;152284.75;5102087;28;20494;-96
2021/03/05 04:55:32;;;;;;;16.17;11.33;;;;;;;3.64;100.00;152300.22;5136640;27;20794;-96
2021/03/05 04:58:07;;;;;;;15.87;10.67;;;;;;;3.65;100.00;152302.75;5102217;28;20435;-96
2021/03/05 05:00:43;;;;;;;15.93;11.00;;;;;;;3.56;100.00;152279.63;5101939;28;20467;-96
2021/03/05 05:03:19;;;;;;;15.77;10.70;;;;;;;3.49;100.00;152261.59;5136211;27;20449;-96
2021/03/05 05:05:54;;;;;;;16.50;11.53;;;;;;;3.54;100.00;152274.47;5101949;28;20464;-96
2021/03/05 05:08:30;;;;;;;15.80;11.40;;;;;;;3.43;100.00;152246.16;5101619;28;20802;-96
2021/03/05 05:11:06;;;;;;;14.53;10.00;;;;;;;3.47;100.00;152256.44;5133467;27;20482;-96
2021/03/05 05:13:42;;;;;;;15.80;10.97;;;;;;;3.54;100.00;152274.47;5101670;28;20943;-96
2021/03/05 05:16:17;;;;;;;12.93;10.30;;;;;;;3.60;100.00;152289.88;5102237;28;20435;-96
2021/03/05 05:18:52;;;;;;;15.90;10.80;;;;;;;3.64;100.00;152300.22;5102014;28;20426;-95
2021/03/05 05:21:27;;;;;;;12.17;10.23;;;;;;;3.63;100.00;152296.31;5133279;27;20435;-96
2021/03/05 05:24:04;;;;;;;16.10;10.60;;;;;;;3.69;100.00;152313.09;5134092;27;20439;-96
2021/03/05 05:26:40;;;;;;;14.90;9.90;;;;;;;3.66;100.00;152304.06;5112305;28;20442;-96
2021/03/05 05:29:16;;;;;;;15.50;10.30;;;;;;;3.60;100.00;152289.88;5122775;28;20424;-96
2021/03/05 05:31:51;;;;;;;15.20;10.00;;;;;;;3.52;100.00;152269.28;5125230;28;20464;-96
2021/03/05 05:34:27;;;;;;;15.10;10.33;;;;;;;3.56;100.00;152278.31;5114256;28;20438;-96
2021/03/05 05:37:03;;;;;;;15.40;10.53;;;;;;;3.40;100.00;152238.41;5133849;27;20435;-96
2021/03/05 05:39:39;;;;;;;17.27;11.37;;;;;;;3.40;100.00;152238.41;5101539;28;20517;-96
2021/03/05 05:42:16;;;;;;;15.93;10.67;;;;;;;3.33;100.00;152220.41;5101777;28;20438;-95
2021/03/05 05:44:51;;;;;;;14.57;9.60;;;;;;;3.22;100.00;152192.09;5101147;28;20441;-95
2021/03/05 05:47:30;;;;;;;14.67;9.97;;;;;;;3.28;100.00;152207.56;5131868;27;20426;-95
2021/03/05 05:50:08;;;;;;;12.67;8.97;;;;;;;3.37;100.00;152230.69;5106746;28;20430;-95
2021/03/05 05:52:45;;;;;;;16.33;10.30;;;;;;;3.34;100.00;152221.66;5114195;28;20504;-93
2021/03/05 05:55:22;;;;;;;14.30;9.80;;;;;;;3.21;100.00;152188.22;5117716;28;20429;-93
2021/03/05 05:57:58;;;;;;;13.77;9.30;;;;;;;3.23;100.00;152194.63;5114179;28;20428;-95
2021/03/05 06:00:33;;;;;;;16.17;10.30;;;;;;;3.35;100.00;152225.56;5104965;28;20474;-95
2021/03/05 06:03:09;;;;;;;15.50;10.10;;;;;;;3.28;100.00;152206.25;5102660;28;20925;-95
2021/03/05 06:05:45;;;;;;;14.10;10.30;;;;;;;3.13;100.00;152168.91;5103179;28;20435;-94
2021/03/05 06:08:21;;;;;;;13.20;9.63;;;;;;;3.21;100.00;152188.22;5137135;27;20438;-95
2021/03/05 06:10:58;;;;;;;14.07;8.63;;;;;;;3.27;100.00;152203.66;5101860;28;20567;-94
2021/03/05 06:13:33;;;;;;;14.20;9.30;;;;;;;3.27;100.00;152203.66;5102285;28;20437;-95
2021/03/05 06:16:13;;;;;;;15.70;9.60;;;;;;;3.33;100.00;152219.13;5139335;27;20815;-94
2021/03/05 06:18:49;;;;;;;12.97;9.67;;;;;;;3.22;100.00;152192.09;5132462;27;20444;-94
2021/03/05 06:21:38;;;;;;;12.50;9.13;;;;;;;3.19;100.00;152184.38;5100310;28;20441;-94
2021/03/05 06:24:17;;;;;;;14.70;9.30;;;;;;;3.07;100.00;152153.50;5101521;28;20433;-94
2021/03/05 06:26:55;;;;;;;15.10;8.97;;;;;;;3.02;100.00;152140.59;5100528;28;20818;-95
2021/03/05 06:29:41;;;;;;;15.73;10.50;;;;;;;3.10;100.00;152159.94;5100576;28;20438;-95
2021/03/05 06:32:18;;;;;;;14.13;8.83;;;;;;;2.97;100.00;152129.03;5100469;28;20472;-95
2021/03/05 06:34:54;;;;;;;14.10;9.47;;;;;;;3.04;100.00;152145.78;5090685;28;20943;-95
2021/03/05 06:37:42;;;;;;;13.20;9.60;;;;;;;2.90;100.00;152111.03;5080484;28;20421;-94
2021/03/05 06:40:18;;;;;;;12.67;9.80;;;;;;;2.89;100.00;152108.44;5079434;28;20429;-95
2021/03/05 06:42:55;;;;;;;14.87;10.33;;;;;;;2.88;100.00;152104.59;5079529;28;20516;-94
2021/03/05 06:45:36;;;;;;;13.30;9.33;;;;;;;2.93;100.00;152118.75;5079909;28;20800;-95
2021/03/05 06:48:11;;;;;;;16.47;9.67;;;;;;;3.01;100.00;152138.06;5079691;28;20435;-95
2021/03/05 06:51:12;;;;;;;12.97;8.87;;;;;;;2.98;100.00;152130.31;5079397;28;20433;-96
2021/03/05 06:53:48;;;;;;;16.87;9.80;;;;;;;2.93;100.00;152117.47;5079459;28;20983;-94
2021/03/05 06:56:27;;;;;;;12.87;8.70;;;;;;;2.84;100.00;152095.59;5067676;28;20438;-94
2021/03/05 06:59:06;;;;;;;15.60;8.93;;;;;;;2.88;100.00;152105.91;5058399;28;20494;-93
2021/03/05 07:01:56;;;;;;;13.10;7.73;;;;;;;2.90;100.00;152111.03;5072094;28;20437;-92
2021/03/05 07:04:32;;;;;;;12.83;8.37;;;;;;;2.93;100.00;152117.47;5070277;28;20542;-92
2021/03/05 07:07:09;;;;;;;14.43;8.93;;;;;;;3.01;100.00;152139.34;5058372;28;20439;-92
2021/03/05 07:09:45;;;;;;;16.60;8.90;;;;;;;3.01;100.00;152138.06;5058324;28;20442;-93
2021/03/05 07:12:22;;;;;;;13.40;9.17;;;;;;;2.96;100.00;152125.19;5094931;28;20936;-93
2021/03/05 07:15:05;;;;;;;13.30;9.17;;;;;;;2.96;100.00;152126.50;5078100;28;20449;-93
2021/03/05 07:17:40;;;;;;;14.03;8.07;;;;;;;2.94;100.00;152121.31;5078979;28;20432;-95
2021/03/05 07:20:16;;;;;;;12.63;8.23;;;;;;;3.00;100.00;152135.47;5078774;28;20541;-95
2021/03/05 07:22:51;;;;;;;15.63;9.27;;;;;;;2.98;100.00;152130.31;5078841;28;20450;-96
2021/03/05 07:25:28;;;;;;;11.60;8.50;;;;;;;2.93;100.00;152117.47;5078556;28;20446;-96
2021/03/05 07:28:04;;;;;;;13.50;9.70;;;;;;;2.97;100.00;152129.03;5079120;28;20486;-96
2021/03/05 07:30:40;;;;;;;18.73;9.43;;;;;;;2.89;100.00;152108.44;5080744;28;20449;-96
2021/03/05 07:33:17;;;;;;;13.60;9.40;;;;;;;2.85;100.00;152096.88;5079388;28;20896;-96
2021/03/05 07:35:53;;;;;;;17.43;9.80;;;;;;;2.81;100.00;152086.56;5078731;28;20437;-96
2021/03/05 07:38:30;;;;;;;18.97;9.63;;;;;;;2.89;100.00;152107.16;5080399;28;20433;-96
2021/03/05 07:41:07;;;;;;;12.40;8.70;;;;;;;2.94;100.00;152121.31;5079977;28;20441;-96
2021/03/05 07:43:43;;;;;;;15.07;9.57;;;;;;;2.90;100.00;152111.03;5079135;28;20445;-96
2021/03/05 07:46:20;;;;;;;15.47;10.10;;;;;;;2.86;100.00;152099.47;5079016;28;20441;-95
2021/03/05 07:48:55;;;;;;;14.70;9.57;;;;;;;2.99;100.00;152132.91;5079204;28;20426;-96
2021/03/05 07:51:32;;;;;;;14.63;9.27;;;;;;;3.00;100.00;152135.47;5111868;28;20498;-96
2021/03/05 07:54:08;;;;;;;19.40;10.60;;;;;;;2.93;100.00;152117.47;5079381;28;20765;-96
2021/03/05 07:56:46;;;;;;;16.10;10.93;;;;;;;2.86;100.00;152099.47;5079002;28;20446;-95
2021/03/05 07:59:49;;;;;;;18.97;9.83;;;;;;;2.85;100.00;152098.19;5078312;28;20525;-94
2021/03/05 08:02:27;;;;;;;17.07;10.27;;;;;;;2.92;100.00;152114.88;5096184;28;20452;-93
2021/03/05 08:05:04;;;;;;;20.67;11.30;;;;;;;2.90;100.00;152111.03;5077597;28;20920;-94
2021/03/05 08:07:40;;;;;;;19.60;11.23;;;;;;;2.93;100.00;152117.47;5078065;28;20433;-93
2021/03/05 08:10:35;;;;;;;18.37;10.97;;;;;;;2.92;100.00;152116.16;5081377;28;20441;-93
2021/03/05 08:13:50;;;;;;;14.77;9.83;;;;;;;2.97;100.00;152129.03;5086617;28;20470;-93
2021/03/05 08:16:47;;;;;;;16.40;10.83;;;;;;;2.91;100.00;152113.56;5085570;28;20441;-93
2021/03/05 08:19:45;;;;;;;16.40;10.40;;;;;;;2.93;100.00;152117.47;5173809;27;20421;-92
2021/03/05 08:22:21;;;;;;;15.20;9.77;;;;;;;2.97;100.00;152129.03;5081520;28;20430;-92
2021/03/05 08:25:21;;;;;;;16.50;9.27;;;;;;;3.05;100.00;152148.31;5061750;28;20430;-93
2021/03/05 08:27:57;;;;;;;15.90;10.90;;;;;;;2.96;100.00;152125.19;5111130;28;20451;-93
2021/03/05 08:30:43;;;;;;;13.80;9.40;;;;;;;3.10;100.00;152159.94;5077007;28;20430;-93
2021/03/05 08:33:26;;;;;;;16.20;9.30;;;;;;;3.04;100.00;152145.78;5061284;28;20551;-93
2021/03/05 08:36:03;;;;;;;16.50;8.70;;;;;;;2.97;100.00;152129.03;5077193;28;20442;-93
2021/03/05 08:38:40;;;;;;;15.50;9.63;;;;;;;3.06;100.00;152150.91;5061758;28;20426;-93
2021/03/05 08:41:24;;;;;;;14.77;9.60;;;;;;;3.05;100.00;152148.31;5076829;28;20427;-93
2021/03/05 08:44:08;;;;;;;17.47;10.60;;;;;;;3.12;100.00;152165.06;5076638;28;20904;-94
2021/03/05 08:46:47;;;;;;;15.23;10.43;;;;;;;3.18;100.00;152181.78;5076833;28;20476;-93
2021/03/05 08:49:24;;;;;;;18.13;10.23;;;;;;;3.15;100.00;152174.03;5110507;28;20956;-94
2021/03/05 08:52:01;;;;;;;16.70;9.60;;;;;;;3.14;100.00;152171.50;5089031;28;20466;-94
2021/03/05 08:54:40;;;;;;;25.87;11.60;;;;;;;3.21;100.00;152188.22;5126409;27;20443;-93
2021/03/05 08:57:16;;;;;;;18.93;10.30;;;;;;;3.18;100.00;152180.53;5076569;28;20534;-94
2021/03/05 08:59:53;;;;;;;13.40;9.40;;;;;;;3.23;100.00;152194.63;5092107;28;20776;-93
2021/03/05 09:02:29;;;;;;;15.50;9.60;;;;;;;3.30;100.00;152212.69;5061371;28;20480;-94
2021/03/05 09:05:06;;;;;;;18.17;10.53;;;;;;;3.24;100.00;152197.22;5094981;28;20436;-94
2021/03/05 09:07:53;;;;;;;13.60;9.13;;;;;;;3.21;100.00;152189.50;5092182;28;20437;-93
2021/03/05 09:10:42;;;;;;;16.53;9.60;;;;;;;3.17;100.00;152179.22;5060857;28;20423;-93
2021/03/05 09:13:19;;;;;;;14.10;8.87;;;;;;;3.14;100.00;152171.50;5076559;28;20466;-93
2021/03/05 09:15:55;;;;;;;14.60;9.57;;;;;;;3.19;100.00;152184.38;5076553;28;20438;-93
2021/03/05 09:18:32;;;;;;;13.30;8.73;;;;;;;3.28;100.00;152207.56;5076299;28;20454;-94
2021/03/05 09:21:09;;;;;;;14.60;9.43;;;;;;;3.27;100.00;152204.97;5081769;28;20446;-94
2021/03/05 09:23:47;;;;;;;15.07;8.97;;;;;;;3.27;100.00;152204.97;5130629;27;20433;-94
2021/03/05 09:26:22;;;;;;;16.00;9.53;;;;;;;3.39;100.00;152234.59;5080985;28;20469;-93
2021/03/05 09:29:03;;;;;;;14.83;9.20;;;;;;;3.28;100.00;152207.56;5130651;27;20469;-93
2021/03/05 09:31:38;;;;;;;14.67;9.57;;;;;;;3.34;100.00;152221.66;5096375;28;20467;-94
2021/03/05 09:34:14;;;;;;;15.57;9.53;;;;;;;3.40;100.00;152238.41;5130511;27;20874;-94
2021/03/05 09:36:50;;;;;;;17.03;9.63;;;;;;;3.40;100.00;152237.13;5065202;28;20445;-94
2021/03/05 09:39:26;;;;;;;17.13;10.90;;;;;;;3.43;100.00;152246.16;5089958;28;20437;-93
2021/03/05 09:42:02;;;;;;;13.60;10.13;;;;;;;3.44;99.47;152248.69;5063449;28;20567;-94
2021/03/05 09:44:44;;;;;;;13.33;8.90;;;;;;;3.28;99.73;152207.56;5113741;27;20954;-94
2021/03/05 09:47:19;;;;;;;15.37;9.40;;;;;;;3.41;100.00;152241.00;5076666;28;20439;-93
2021/03/05 09:49:54;;;;;;;18.30;10.60;;;;;;;3.43;99.48;152244.84;5075920;28;20793;-93
2021/03/05 09:52:29;;;;;;;17.67;9.97;;;;;;;3.35;97.49;152225.56;5074095;28;20970;-93
2021/03/05 09:55:07;;;;;;;14.60;7.90;;;;;;;3.18;97.19;152180.53;5077454;28;20809;-94
2021/03/05 09:57:42;;;;;;;11.77;8.00;;;;;;;3.29;98.32;152210.09;5095397;28;20480;-94
2021/03/05 10:00:28;;;;;;;13.63;9.40;;;;;;;3.39;98.15;152235.81;5129765;27;20468;-94
2021/03/05 10:03:05;;;;;;;17.80;9.50;;;;;;;3.30;97.03;152212.69;5129742;27;20451;-94
2021/03/05 10:05:42;;;;;;;13.27;8.43;;;;;;;3.33;97.18;152219.13;5079541;28;20435;-94
2021/03/05 10:08:19;;;;;;;14.53;8.70;;;;;;;3.37;97.29;152230.69;5092382;28;20439;-94
2021/03/05 10:11:06;;;;;;;14.23;8.30;;;;;;;3.35;95.85;152225.56;5083330;28;20462;-94
2021/03/05 10:14:10;;;;;;;12.00;8.10;;;;;;;3.26;93.25;152202.38;5116388;27;20958;-94
2021/03/05 10:16:45;;;;;;;16.87;9.47;;;;;;;3.32;95.61;152217.81;5053885;28;20445;-93
2021/03/05 10:19:21;;;;;;;13.00;8.40;;;;;;;3.41;95.74;152239.72;5109509;28;20443;-93
2021/03/05 10:21:57;;;;;;;13.10;8.33;;;;;;;3.45;94.77;152251.28;5128860;27;20438;-93
2021/03/05 10:24:32;;;;;;;12.30;8.83;;;;;;;3.51;93.54;152266.75;5129008;27;21261;-94
2021/03/05 10:27:10;;;;;;;12.17;7.83;;;;;;;3.64;94.08;152298.91;5129434;27;20450;-93
2021/03/05 10:29:47;;;;;;;20.43;8.93;;;;;;;3.60;92.30;152289.88;5074532;28;20938;-93
2021/03/05 10:32:23;;;;;;;16.30;9.50;;;;;;;3.68;92.57;152310.50;5074533;28;20842;-93
2021/03/05 10:35:01;;;;;;;13.90;8.50;;;;;;;3.80;93.79;152338.81;5074736;28;20439;-93
2021/03/05 10:37:37;;;;;;;15.07;9.07;;;;;;;3.72;89.29;152318.22;5075605;28;20456;-93
2021/03/05 10:40:14;;;;;;;10.87;7.73;;;;;;;3.77;91.28;152331.09;5075022;28;20448;-93
2021/03/05 10:42:50;;;;;;;18.37;10.10;;;;;;;3.81;92.14;152342.72;5060451;28;20511;-93
2021/03/05 10:45:26;;;;;;;14.03;8.40;;;;;;;3.95;92.50;152377.44;5059556;28;20777;-93
2021/03/05 10:48:01;;;;;;;10.93;7.20;;;;;;;3.87;88.96;152358.13;5059455;28;20441;-93
2021/03/05 10:50:36;;;;;;;11.17;7.97;;;;;;;3.79;90.42;152337.53;5059033;28;20440;-93
2021/03/05 10:53:11;;;;;;;12.00;7.37;;;;;;;3.84;91.82;152349.16;5058966;28;20974;-93
2021/03/05 10:55:47;;;;;;;15.90;8.97;;;;;;;3.79;89.98;152337.53;5059003;28;20452;-93
2021/03/05 10:58:23;;;;;;;13.80;8.03;;;;;;;3.85;91.75;152351.69;5059434;28;20433;-94
2021/03/05 11:00:58;;;;;;;13.00;8.77;;;;;;;4.03;92.82;152399.34;5061267;28;20424;-93
2021/03/05 11:03:33;;;;;;;13.03;8.60;;;;;;;3.94;88.51;152374.88;5083394;28;20439;-94
2021/03/05 11:06:09;;;;;;;13.43;9.07;;;;;;;3.98;90.85;152385.16;5100541;28;20420;-93
2021/03/05 11:08:44;;;;;;;16.43;8.40;;;;;;;3.96;88.89;152381.31;5148852;27;20428;-94
2021/03/05 11:11:19;;;;;;;13.53;8.73;;;;;;;4.03;89.34;152398.03;5079281;28;20472;-93
2021/03/05 11:13:56;;;;;;;13.50;7.97;;;;;;;3.98;89.96;152385.16;5094247;28;20428;-94
2021/03/05 11:16:31;;;;;;;10.23;7.23;;;;;;;3.95;89.27;152377.44;5073681;28;20448;-93
2021/03/05 11:19:07;;;;;;;13.93;6.93;;;;;;;4.05;89.41;152403.22;5073795;28;20437;-93
2021/03/05 11:21:42;;;;;;;16.00;9.10;;;;;;;4.15;89.12;152428.97;5072717;28;20443;-93
2021/03/05 11:24:18;;;;;;;13.80;8.53;;;;;;;4.20;88.64;152441.84;5094031;28;20433;-94
2021/03/05 11:26:53;;;;;;;12.27;7.50;;;;;;;4.13;88.52;152425.09;5093898;28;20913;-93
2021/03/05 11:29:32;;;;;;;13.63;8.87;;;;;;;4.09;87.69;152413.50;5078414;28;20447;-93
2021/03/05 11:32:19;;;;;;;12.70;8.50;;;;;;;4.18;88.67;152437.97;5113310;28;20532;-95
2021/03/05 11:34:55;;;;;;;16.20;8.03;;;;;;;4.27;88.22;152459.88;5114341;28;20435;-94
2021/03/05 11:37:30;;;;;;;14.27;8.10;;;;;;;4.28;87.97;152463.75;5098768;28;20446;-94
2021/03/05 11:40:17;;;;;;;;;;;;;;;;;;;;;
2021/03/05 11:42:53;;;;;;;11.47;7.50;;;;;;;4.00;85.68;152390.31;5098465;28;20526;-93
2021/03/05 11:45:29;;;;;;;14.87;8.90;;;;;;;3.83;88.37;152346.56;5089678;28;20444;-94
2021/03/05 11:48:06;;;;;;;10.53;8.33;;;;;;;3.96;90.62;152380.03;5058108;28;20420;-93
2021/03/05 11:50:41;;;;;;;14.13;8.77;;;;;;;4.00;88.63;152390.31;5057884;28;20853;-93
2021/03/05 11:53:16;;;;;;;13.10;8.30;;;;;;;4.09;88.18;152414.81;5058666;28;20462;-94
2021/03/05 11:55:52;;;;;;;11.93;7.93;;;;;;;4.17;88.66;152435.41;5058069;28;20434;-94
2021/03/05 11:58:27;;;;;;;14.90;8.77;;;;;;;4.21;87.76;152444.41;5058503;28;20463;-94
2021/03/05 12:01:03;;;;;;;13.37;7.30;;;;;;;4.18;87.07;152436.72;5057979;28;20472;-94
2021/03/05 12:03:40;;;;;;;11.37;7.77;;;;;;;4.33;88.70;152475.34;5058229;28;20442;-94
2021/03/05 12:06:16;;;;;;;13.90;8.50;;;;;;;4.35;87.29;152480.47;5058262;28;20430;-94
2021/03/05 12:08:51;;;;;;;11.60;7.70;;;;;;;4.33;85.06;152475.34;5058105;28;20431;-94